Time;durP1;ratioP1;P1;durP2;ratioP2;P2;SDS_P1;SDS_P2;PMS_P1;PMS_P2;Temp;Humidity;BMP_temperature;BMP_pressure;BME280_temperature;BME280_humidity;BME280_pressure;Samples;Min_cycle;Max_cycle;Signal;HPM_P1;HPM_P2
2022/04/07 00:00:34;;;;;;;10.77;6.20;;;;;;;;;;4978520;28;20051;-86
2022/04/07 00:03:00;;;;;;;12.85;6.97;;;;;;;;;;4962386;28;20134;-87
2022/04/07 00:05:26;;;;;;;11.95;7.13;;;;;;;;;;4978377;28;20050;-86
2022/04/07 00:07:52;;;;;;;10.65;7.25;;;;;;;;;;4962101;28;20054;-85
2022/04/07 00:10:18;;;;;;;9.60;7.68;;;;;;;;;;4978026;28;20133;-85
2022/04/07 00:12:45;;;;;;;10.57;7.75;;;;;;;;;;4995428;28;20039;-86
2022/04/07 00:15:11;;;;;;;12.93;8.82;;;;;;;;;;4978628;28;20375;-87
2022/04/07 00:17:37;;;;;;;12.32;9.38;;;;;;;;;;4978421;28;20453;-86
2022/04/07 00:20:04;;;;;;;15.52;9.57;;;9.40;99.90;;;;;;4995652;28;20121;-85
2022/04/07 00:22:30;;;;;;;15.85;10.45;;;;;;;;;;4961803;28;20510;-86
2022/04/07 00:24:56;;;;;;;13.40;10.65;;;;;;;;;;4978345;28;20061;-85
2022/04/07 00:27:22;;;;;;;13.63;11.45;;;;;;;;;;4977657;28;20062;-86
2022/04/07 00:29:48;;;;;;;14.40;11.20;;;;;;;;;;4977844;28;20061;-85
2022/04/07 00:32:14;;;;;;;10.85;9.40;;;;;;;;;;4977787;28;20071;-86
2022/04/07 00:34:44;;;;;;;10.93;9.70;;;;;;;;;;4977731;28;20387;-86
2022/04/07 00:37:10;;;;;;;14.77;10.07;;;;;;;;;;4977423;28;20061;-86
2022/04/07 00:39:36;;;;;;;14.27;9.23;;;;;;;;;;4977909;28;20118;-86
2022/04/07 00:42:02;;;;;;;14.93;9.70;;;9.20;99.90;;;;;;4977935;28;20082;-86
2022/04/07 00:44:28;;;;;;;11.25;9.95;;;;;;;;;;4995178;28;20050;-86
2022/04/07 00:46:54;;;;;;;11.68;9.88;;;;;;;;;;4977491;28;20430;-85
2022/04/07 00:49:20;;;;;;;12.68;9.73;;;;;;;;;;4995494;28;20410;-86
2022/04/07 00:51:49;;;;;;;12.52;9.95;;;;;;;;;;4961376;28;20093;-86
2022/04/07 00:54:16;;;;;;;13.00;9.82;;;9.30;99.90;;;;;;4977924;28;20050;-86
2022/04/07 00:56:42;;;;;;;10.82;9.32;;;;;;;;;;4995009;28;20389;-86
2022/04/07 00:59:14;;;;;;;12.38;9.55;;;9.20;99.90;;;;;;4977041;28;20173;-86
2022/04/07 01:01:46;;;;;;;14.23;9.20;;;8.90;99.90;;;;;;5049166;23;20592;-58
2022/04/07 01:04:12;;;;;;;12.70;8.52;;;9.20;99.90;;;;;;4993035;28;20050;-58
2022/04/07 01:06:39;;;;;;;13.43;8.98;;;9.20;99.90;;;;;;4993045;28;20528;-59
2022/04/07 01:09:06;;;;;;;10.88;8.00;;;;;;;;;;4993479;28;20133;-58
2022/04/07 01:11:32;;;;;;;12.40;8.05;;;9.30;99.90;;;;;;4993332;28;20066;-59
2022/04/07 01:13:58;;;;;;;10.55;8.25;;;9.00;99.90;;;;;;4993323;28;20048;-58
2022/04/07 01:16:28;;;;;;;15.93;8.98;;;9.20;99.90;;;;;;4991981;28;20042;-58
2022/04/07 01:18:55;;;;;;;13.52;8.77;;;9.60;99.90;;;;;;4993153;28;20109;-58
2022/04/07 01:21:21;;;;;;;12.20;8.68;;;9.30;99.90;;;;;;4993599;28;20146;-58
2022/04/07 01:24:11;;;;;;;15.27;8.50;;;8.90;99.90;;;;;;4992684;28;20121;-59
2022/04/07 01:26:42;;;;;;;14.88;8.27;;;9.20;99.90;;;;;;5007925;28;20046;-58
2022/04/07 01:29:13;;;;;;;12.95;7.93;;;9.20;99.90;;;;;;4992813;28;20108;-58
2022/04/07 01:31:40;;;;;;;10.77;7.80;;;9.00;99.90;;;;;;4991512;28;20054;-58
2022/04/07 01:34:09;;;;;;;10.32;7.53;;;9.20;99.90;;;;;;4991670;28;20089;-59
2022/04/07 01:36:38;;;;;;;15.13;8.00;;;9.70;99.90;;;;;;4991521;28;20349;-58
2022/04/07 01:39:10;;;;;;;12.32;8.23;;;9.00;99.90;;;;;;4992842;28;20401;-58
2022/04/07 01:41:40;;;;;;;12.93;8.13;;;9.20;99.90;;;;;;4991433;28;20457;-58
2022/04/07 01:44:07;;;;;;;14.82;7.03;;;9.20;99.90;;;;;;4992871;28;20046;-59
2022/04/07 01:46:34;;;;;;;12.07;6.57;;;;;;;;;;4992681;28;20050;-59
2022/04/07 01:49:01;;;;;;;8.77;6.47;;;9.20;99.90;;;;;;4992398;28;20490;-58
2022/04/07 01:51:29;;;;;;;13.38;6.35;;;9.20;99.90;;;;;;4992957;28;20379;-58
2022/04/07 01:53:56;;;;;;;9.43;6.10;;;9.00;99.90;;;;;;4992673;28;20046;-59
2022/04/07 01:56:22;;;;;;;10.20;6.07;;;9.30;99.90;;;;;;4992463;28;20046;-59
2022/04/07 01:58:48;;;;;;;10.73;5.80;;;9.20;99.90;;;;;;4992465;28;20050;-59
2022/04/07 02:01:15;;;;;;;11.50;5.45;;;9.20;99.90;;;;;;4999345;28;20374;-58
2022/04/07 02:03:41;;;;;;;9.25;5.22;;;;;;;;;;4993745;28;20053;-58
2022/04/07 02:06:14;;;;;;;9.88;4.97;;;9.20;99.90;;;;;;5008266;28;20053;-58
2022/04/07 02:08:41;;;;;;;10.27;5.25;;;;;;;;;;5001813;28;20038;-59
2022/04/07 02:11:07;;;;;;;9.27;4.90;;;9.20;99.90;;;;;;4991331;28;20061;-58
2022/04/07 02:13:34;;;;;;;10.40;5.80;;;;;;;;;;4993002;28;20539;-59
2022/04/07 02:16:01;;;;;;;10.57;5.28;;;8.80;99.90;;;;;;4995315;28;20050;-58
2022/04/07 02:18:27;;;;;;;12.23;5.80;;;;;;;;;;5004124;28;20044;-59
2022/04/07 02:20:52;;;;;;;15.57;6.10;;;9.90;99.90;;;;;;5007336;28;20073;-58
2022/04/07 02:23:19;;;;;;;10.63;5.47;;;;;;;;;;4992741;28;20066;-60
2022/04/07 02:25:45;;;;;;;14.07;6.32;;;;;;;;;;4989363;28;20058;-58
2022/04/07 02:28:11;;;;;;;14.63;6.38;;;;;;;;;;4992878;28;20050;-58
2022/04/07 02:30:37;;;;;;;12.98;6.45;;;;;;;;;;4990952;28;20049;-58
2022/04/07 02:33:03;;;;;;;16.25;6.45;;;;;;;;;;4991574;28;20045;-59
2022/04/07 02:35:28;;;;;;;16.17;7.15;;;9.00;99.90;;;;;;4994182;28;20042;-58
2022/04/07 02:37:54;;;;;;;13.43;6.80;;;9.00;99.90;;;;;;4996473;28;20050;-58
2022/04/07 02:40:20;;;;;;;19.58;7.40;;;8.90;99.90;;;;;;4992421;28;20042;-58
2022/04/07 02:42:46;;;;;;;14.05;6.82;;;;;;;;;;4991092;28;20058;-58
2022/04/07 02:45:11;;;;;;;13.93;6.93;;;8.80;99.90;;;;;;4991453;28;20058;-58
2022/04/07 02:47:40;;;;;;;16.90;7.18;;;8.80;99.90;;;;;;4995989;28;20713;-58
2022/04/07 02:50:07;;;;;;;15.63;6.53;;;9.70;99.90;;;;;;5006879;28;20500;-59
2022/04/07 02:52:35;;;;;;;16.65;6.50;;;8.60;99.90;;;;;;5008643;28;20488;-58
2022/04/07 02:55:02;;;;;;;12.55;6.68;;;8.90;99.90;;;;;;4999363;28;20046;-59
2022/04/07 02:57:31;;;;;;;17.77;7.28;;;9.20;99.90;;;;;;4993215;28;20050;-58
2022/04/07 02:59:58;;;;;;;16.77;7.35;;;9.10;99.90;;;;;;4999330;28;20064;-58
2022/04/07 03:02:24;;;;;;;18.85;7.82;;;;;;;;;;5005601;28;20046;-58
2022/04/07 03:04:51;;;;;;;16.92;7.43;;;9.30;99.90;;;;;;5007432;28;20250;-58
2022/04/07 03:07:17;;;;;;;17.73;6.95;;;;;;;;;;4990274;28;20046;-58
2022/04/07 03:09:43;;;;;;;18.17;6.75;;;8.90;99.90;;;;;;4991279;28;20081;-59
2022/04/07 03:12:10;;;;;;;16.73;7.30;;;8.80;99.90;;;;;;5002431;28;20096;-59
2022/04/07 03:14:36;;;;;;;13.70;7.68;;;9.00;99.90;;;;;;5009549;28;20065;-58
2022/04/07 03:17:02;;;;;;;16.77;7.75;;;;;;;;;;4993529;28;20089;-58
2022/04/07 03:19:28;;;;;;;16.38;6.90;;;;;;;;;;5010753;28;20112;-58
2022/04/07 03:21:55;;;;;;;19.20;7.78;;;;;;;;;;5001337;28;20050;-59
2022/04/07 03:24:20;;;;;;;15.23;7.05;;;8.90;99.90;;;;;;4994655;28;20125;-59
2022/04/07 03:26:46;;;;;;;17.33;7.18;;;8.70;99.90;;;;;;4993657;28;20133;-59
2022/04/07 03:29:12;;;;;;;16.77;7.47;;;8.60;99.90;;;;;;4994674;28;20116;-59
2022/04/07 03:31:37;;;;;;;18.08;7.13;;;8.80;99.90;;;;;;5000597;28;20476;-59
2022/04/07 03:34:03;;;;;;;19.30;7.20;;;8.70;99.90;;;;;;5013879;28;20054;-58
2022/04/07 03:36:29;;;;;;;19.42;6.60;;;;;;;;;;5014379;28;20509;-59
2022/04/07 03:38:55;;;;;;;19.55;6.78;;;8.60;99.90;;;;;;5013926;28;20121;-59
2022/04/07 03:41:21;;;;;;;17.10;6.00;;;;;;;;;;5007533;28;20137;-59
2022/04/07 03:43:47;;;;;;;17.65;6.55;;;;;;;;;;4994459;28;20054;-67
2022/04/07 03:46:16;;;;;;;17.13;6.05;;;;;;;;;;4994406;28;20046;-67
2022/04/07 03:48:41;;;;;;;15.55;5.80;;;9.00;99.90;;;;;;4994733;28;20073;-67
2022/04/07 03:51:07;;;;;;;21.33;6.45;;;8.70;99.90;;;;;;4996181;28;20064;-67
2022/04/07 03:53:33;;;;;;;20.00;6.50;;;;;;;;;;5012153;28;20061;-68
2022/04/07 03:55:59;;;;;;;19.50;6.13;;;;;;;;;;5012509;28;20068;-67
2022/04/07 03:58:26;;;;;;;18.10;5.68;;;8.70;99.90;;;;;;5013968;28;20046;-67
2022/04/07 04:00:52;;;;;;;19.52;6.00;;;9.00;99.90;;;;;;5011429;28;20129;-67
2022/04/07 04:03:18;;;;;;;20.58;5.90;;;8.60;99.90;;;;;;4992846;28;20058;-67
2022/04/07 04:05:44;;;;;;;17.73;5.82;;;;;;;;;;4993994;28;20548;-66
2022/04/07 04:08:10;;;;;;;19.02;5.20;;;;;;;;;;4993998;28;20145;-66
2022/04/07 04:10:36;;;;;;;21.92;5.43;;;;;;;;;;4993996;28;20163;-66
2022/04/07 04:13:02;;;;;;;21.08;5.82;;;9.60;99.90;;;;;;5012148;28;20057;-66
2022/04/07 04:15:28;;;;;;;23.38;5.35;;;8.30;99.90;;;;;;5013762;28;20050;-66
2022/04/07 04:17:54;;;;;;;24.10;5.55;;;9.20;99.90;;;;;;5013699;28;20129;-66
2022/04/07 04:20:20;;;;;;;21.75;5.30;;;8.60;99.90;;;;;;5013327;28;20529;-66
2022/04/07 04:22:46;;;;;;;22.67;6.15;;;;;;;;;;4996756;28;20148;-66
2022/04/07 04:25:11;;;;;;;19.83;5.65;;;8.80;99.90;;;;;;4993508;28;20046;-66
2022/04/07 04:27:37;;;;;;;23.90;5.82;;;8.30;99.90;;;;;;4993950;28;20690;-67
2022/04/07 04:30:03;;;;;;;18.00;5.28;;;8.50;99.90;;;;;;4993643;28;20067;-66
2022/04/07 04:32:29;;;;;;;20.02;5.70;;;8.60;99.90;;;;;;4992026;28;20141;-66
2022/04/07 04:34:55;;;;;;;21.02;6.22;;;;;;;;;;4992142;28;20125;-66
2022/04/07 04:37:25;;;;;;;19.70;5.75;;;8.60;99.90;;;;;;4991904;28;20058;-66
2022/04/07 04:39:54;;;;;;;21.48;5.97;;;8.90;99.90;;;;;;4993469;28;20133;-66
2022/04/07 04:42:20;;;;;;;21.40;5.55;;;8.90;99.90;;;;;;4992068;28;20049;-66
2022/04/07 04:44:47;;;;;;;24.42;6.25;;;7.60;99.90;;;;;;4991684;28;20038;-65
2022/04/07 04:47:13;;;;;;;17.48;5.93;;;8.80;99.90;;;;;;4992214;28;20058;-65
2022/04/07 04:49:42;;;;;;;28.52;6.63;;;8.80;99.90;;;;;;4993198;28;20516;-65
2022/04/07 04:52:08;;;;;;;26.25;6.93;;;8.80;99.90;;;;;;5005028;28;20489;-67
2022/04/07 04:54:34;;;;;;;26.88;6.88;;;;;;;;;;5012784;28;20049;-66
2022/04/07 04:57:01;;;;;;;27.67;7.45;;;8.70;99.90;;;;;;5012514;28;20512;-66
2022/04/07 04:59:27;;;;;;;27.38;7.70;;;8.90;99.90;;;;;;5013035;28;20050;-65
2022/04/07 05:01:53;;;;;;;28.63;7.50;;;9.10;99.90;;;;;;5011394;28;20509;-65
2022/04/07 05:04:19;;;;;;;27.73;7.05;;;;;;;;;;5012477;28;20058;-66
2022/04/07 05:06:45;;;;;;;31.95;8.00;;;8.90;99.90;;;;;;5012816;28;20042;-66
2022/04/07 05:09:11;;;;;;;23.83;6.72;;;;;;;;;;5012643;28;20767;-66
2022/04/07 05:11:37;;;;;;;20.73;6.80;;;;;;;;;;5004312;28;20050;-66
2022/04/07 05:14:03;;;;;;;22.85;6.50;;;8.70;99.90;;;;;;4992784;28;20061;-66
2022/04/07 05:16:29;;;;;;;24.92;7.20;;;;;;;;;;5005326;28;20073;-66
2022/04/07 05:18:55;;;;;;;25.13;6.47;;;8.70;99.90;;;;;;5012430;28;20397;-66
2022/04/07 05:21:21;;;;;;;25.77;6.70;;;;;;;;;;5006389;28;20488;-66
2022/04/07 05:23:46;;;;;;;25.60;6.80;;;8.80;99.90;;;;;;4992599;28;20054;-66
2022/04/07 05:26:12;;;;;;;24.45;6.70;;;8.40;99.90;;;;;;4991119;28;20042;-66
2022/04/07 05:28:39;;;;;;;19.70;6.50;;;8.70;99.90;;;;;;4993212;28;20038;-66
2022/04/07 05:31:05;;;;;;;21.00;6.22;;;;;;;;;;4996486;28;20111;-66
2022/04/07 05:33:31;;;;;;;20.13;6.57;;;8.70;99.90;;;;;;5010939;28;20385;-68
2022/04/07 05:35:57;;;;;;;19.58;6.15;;;8.70;99.90;;;;;;5011597;28;20436;-67
2022/04/07 05:38:23;;;;;;;18.05;5.68;;;8.50;99.90;;;;;;5012043;28;20409;-59
2022/04/07 05:40:49;;;;;;;17.38;5.45;;;;;;;;;;5010303;28;20081;-59
2022/04/07 05:43:15;;;;;;;18.10;5.47;;;;;;;;;;4992103;28;20038;-59
2022/04/07 05:45:42;;;;;;;19.70;5.22;;;8.70;99.90;;;;;;4991883;28;20141;-59
2022/04/07 05:48:10;;;;;;;18.38;5.43;;;8.70;99.90;;;;;;4992114;28;20046;-58
2022/04/07 05:50:35;;;;;;;18.13;5.10;;;8.40;99.90;;;;;;5000564;28;20056;-59
2022/04/07 05:53:01;;;;;;;17.05;4.85;;;;;;;;;;5000272;28;20128;-59
2022/04/07 05:55:27;;;;;;;18.67;5.10;;;8.90;99.90;;;;;;5009768;28;20049;-58
2022/04/07 05:57:54;;;;;;;16.25;4.97;;;;;;;;;;5011646;28;20044;-59
2022/04/07 06:00:20;;;;;;;20.55;5.10;;;8.90;99.90;;;;;;5011795;28;20393;-59
2022/04/07 06:02:47;;;;;;;19.25;5.28;;;8.60;99.90;;;;;;4996907;28;20064;-58
2022/04/07 06:05:18;;;;;;;17.98;4.80;;;8.80;99.90;;;;;;5000171;28;20409;-59
2022/04/07 06:07:44;;;;;;;15.10;4.45;;;8.80;99.90;;;;;;5003053;28;20038;-59
2022/04/07 06:10:10;;;;;;;16.67;4.70;;;9.10;99.90;;;;;;5003279;28;20054;-59
2022/04/07 06:12:38;;;;;;;13.70;4.60;;;;;;;;;;5000772;28;20460;-59
2022/04/07 06:15:04;;;;;;;17.63;5.22;;;8.70;99.90;;;;;;4992445;28;20089;-59
2022/04/07 06:17:38;;;;;;;19.80;3.92;;;8.70;99.90;;;;;;4991475;28;20391;-60
2022/04/07 06:20:08;;;;;;;12.18;2.10;;;8.30;99.90;;;;;;5005682;28;20057;-59
2022/04/07 06:22:34;;;;;;;3.42;1.27;;;7.60;99.90;;;;;;5010835;28;20112;-59
2022/04/07 06:25:00;;;;;;;10.13;2.97;;;7.00;99.90;;;;;;5008085;28;20161;-59
2022/04/07 06:27:45;;;;;;;2.17;1.00;;;7.00;99.90;;;;;;4990923;28;20074;-58
2022/04/07 06:30:20;;;;;;;3.70;1.10;;;6.40;99.90;;;;;;5008492;28;20050;-59
2022/04/07 06:32:48;;;;;;;3.70;1.10;;;6.60;99.90;;;;;;4991222;28;20054;-58
2022/04/07 06:35:15;;;;;;;2.45;1.10;;;6.00;99.90;;;;;;4989665;28;20088;-59
2022/04/07 06:37:51;;;;;;;4.63;1.10;;;6.70;99.90;;;;;;4992722;28;20047;-58
2022/04/07 06:40:19;;;;;;;2.72;1.13;;;6.40;99.90;;;;;;4992759;28;20093;-59
2022/04/07 06:42:45;;;;;;;7.60;1.35;;;;;;;;;;5009227;28;20588;-58
2022/04/07 06:45:11;;;;;;;3.35;1.20;;;;;;;;;;5001370;28;20141;-58
2022/04/07 06:47:41;;;;;;;5.43;1.20;;;6.30;99.90;;;;;;5000084;28;20129;-60
2022/04/07 06:50:11;;;;;;;3.70;1.67;;;6.40;99.90;;;;;;5004035;28;20052;-58
2022/04/07 06:52:37;;;;;;;5.93;1.63;;;;;;;;;;5000756;28;20049;-59
2022/04/07 06:55:03;;;;;;;2.47;1.20;;;6.30;99.90;;;;;;4997669;28;20529;-59
2022/04/07 06:57:29;;;;;;;4.95;1.35;;;6.00;99.90;;;;;;4991799;28;20050;-59
2022/04/07 06:59:55;;;;;;;3.67;1.30;;;6.20;99.90;;;;;;4999156;28;20049;-58
2022/04/07 07:02:21;;;;;;;3.75;1.27;;;;;;;;;;5009726;28;20094;-59
2022/04/07 07:04:47;;;;;;;4.45;1.25;;;;;;;;;;4994474;28;20058;-59
2022/04/07 07:07:13;;;;;;;5.60;1.55;;;6.00;99.90;;;;;;4994451;28;20049;-59
2022/04/07 07:09:39;;;;;;;4.57;1.20;;;;;;;;;;5001971;28;20045;-59
2022/04/07 07:12:05;;;;;;;2.40;1.13;;;;;;;;;;5010704;28;20061;-58
2022/04/07 07:14:31;;;;;;;4.65;1.30;;;;;;;;;;4999954;28;20490;-58
2022/04/07 07:16:57;;;;;;;4.50;1.38;;;6.00;99.90;;;;;;4998946;28;20049;-59
2022/04/07 07:19:26;;;;;;;3.97;1.10;;;5.70;99.90;;;;;;5001094;28;20046;-59
2022/04/07 07:21:56;;;;;;;3.20;1.23;;;5.80;99.90;;;;;;5008654;28;20057;-58
2022/04/07 07:24:21;;;;;;;2.95;1.10;;;5.30;99.90;;;;;;5010990;28;20049;-58
2022/04/07 07:26:47;;;;;;;3.45;1.10;;;;;;;;;;4995811;28;20057;-58
2022/04/07 07:29:13;;;;;;;6.22;1.42;;;;;;;;;;5005221;28;20234;-58
2022/04/07 07:31:39;;;;;;;5.65;1.25;;;;;;;;;;4994622;28;20049;-59
2022/04/07 07:34:06;;;;;;;4.50;1.20;;;;;;;;;;4996757;28;20054;-58
2022/04/07 07:36:31;;;;;;;4.78;1.20;;;6.00;99.90;;;;;;5000813;28;20060;-58
2022/04/07 07:38:57;;;;;;;6.20;1.42;;;5.60;99.90;;;;;;4994419;28;20498;-58
2022/04/07 07:41:23;;;;;;;2.97;1.30;;;5.50;99.90;;;;;;5004418;28;20427;-58
2022/04/07 07:43:50;;;;;;;4.53;1.50;;;5.70;99.90;;;;;;5007852;28;20044;-58
2022/04/07 07:46:16;;;;;;;5.20;1.50;;;;;;;;;;4995993;28;20050;-58
2022/04/07 07:48:42;;;;;;;7.05;1.77;;;4.20;99.90;;;;;;4993361;28;20046;-58
2022/04/07 07:51:08;;;;;;;6.68;1.73;;;;;;;;;;4995598;28;20046;-58
2022/04/07 07:53:34;;;;;;;6.88;1.90;;;5.50;99.90;;;;;;4993514;28;20065;-58
2022/04/07 07:56:00;;;;;;;5.43;1.50;;;5.50;99.90;;;;;;5003628;28;20486;-58
2022/04/07 07:58:25;;;;;;;9.82;1.80;;;5.30;99.90;;;;;;4997581;28;20054;-58
2022/04/07 08:00:52;;;;;;;6.25;1.77;;;5.50;99.90;;;;;;5004652;28;20057;-58
2022/04/07 08:03:18;;;;;;;8.27;1.85;;;;;;;;;;5005008;28;20124;-59
2022/04/07 08:05:44;;;;;;;8.52;2.00;;;;;;;;;;4999139;28;20042;-59
2022/04/07 08:08:11;;;;;;;2.97;1.52;;;5.80;99.90;;;;;;5000122;28;20401;-58
2022/04/07 08:10:37;;;;;;;6.43;1.70;;;;;;;;;;5005358;28;20080;-60
2022/04/07 08:13:03;;;;;;;6.15;2.13;;;;;;;;;;4998490;28;20541;-58
2022/04/07 08:15:30;;;;;;;8.00;1.90;;;5.80;99.90;;;;;;5000012;28;20144;-58
2022/04/07 08:17:56;;;;;;;5.72;1.80;;;5.50;99.90;;;;;;5003078;28;20042;-58
2022/04/07 08:20:22;;;;;;;5.20;1.90;;;5.40;99.90;;;;;;5004406;28;20481;-58
2022/04/07 08:22:48;;;;;;;4.22;1.60;;;;;;;;;;5010137;28;20112;-59
2022/04/07 08:25:13;;;;;;;5.53;1.80;;;5.40;99.90;;;;;;4998637;28;20468;-58
2022/04/07 08:27:39;;;;;;;5.95;1.75;;;5.80;99.90;;;;;;5005298;28;20038;-59
2022/04/07 08:30:05;;;;;;;7.50;1.60;;;5.60;99.90;;;;;;4997363;28;20061;-58
2022/04/07 08:32:33;;;;;;;4.60;1.83;;;5.50;99.90;;;;;;5010311;28;20133;-58
2022/04/07 08:34:59;;;;;;;4.63;1.75;;;5.70;99.90;;;;;;5004388;28;20050;-58
2022/04/07 08:37:25;;;;;;;5.03;1.55;;;5.90;99.90;;;;;;5004245;28;20108;-57
2022/04/07 08:39:51;;;;;;;4.50;1.42;;;;;;;;;;4998899;28;20065;-58
2022/04/07 08:42:25;;;;;;;5.38;1.70;;;5.70;99.90;;;;;;5000285;28;20049;-58
2022/04/07 08:44:51;;;;;;;5.47;1.60;;;6.00;99.90;;;;;;5008001;28;20537;-58
2022/04/07 08:47:20;;;;;;;5.78;1.70;;;5.90;99.90;;;;;;4994706;28;20048;-58
2022/04/07 08:49:48;;;;;;;5.18;1.67;;;5.80;99.90;;;;;;5001854;28;20073;-58
2022/04/07 08:52:15;;;;;;;5.90;1.50;;;6.20;99.90;;;;;;4994394;28;20054;-58
2022/04/07 08:54:42;;;;;;;4.00;1.35;;;;;;;;;;5003350;28;20050;-58
2022/04/07 08:57:08;;;;;;;5.43;1.73;;;;;;;;;;5003534;28;20133;-58
2022/04/07 08:59:35;;;;;;;5.70;1.45;;;;;;;;;;5005691;28;20065;-61
2022/04/07 09:02:02;;;;;;;5.68;1.50;;;6.20;99.90;;;;;;4997890;28;20060;-58
2022/04/07 09:04:35;;;;;;;4.95;1.45;;;7.20;99.90;;;;;;5005966;28;20509;-57
2022/04/07 09:07:01;;;;;;;6.55;1.55;;;;;;;;;;5011642;28;20147;-58
2022/04/07 09:09:31;;;;;;;5.35;1.42;;;8.20;99.90;;;;;;5004342;28;20506;-58
2022/04/07 09:11:58;;;;;;;6.47;1.92;;;9.40;99.90;;;;;;4994636;28;20084;-57
2022/04/07 09:14:24;;;;;;;3.35;1.20;;;9.00;99.90;;;;;;4992522;28;20046;-58
2022/04/07 09:16:57;;;;;;;4.90;1.50;;;9.40;99.90;;;;;;4993629;28;20081;-58
2022/04/07 09:19:23;;;;;;;2.85;1.50;;;9.60;99.90;;;;;;4998019;28;20042;-58
2022/04/07 09:22:13;;;;;;;5.60;1.83;;;9.80;99.90;;;;;;5003160;28;20053;-58
2022/04/07 09:24:41;;;;;;;5.07;1.40;;;8.60;99.90;;;;;;5001729;28;20042;-58
2022/04/07 09:27:11;;;;;;;6.10;1.30;;;10.00;99.90;;;;;;5008393;28;20061;-58
2022/04/07 09:29:45;;;;;;;6.70;1.77;;;10.00;99.90;;;;;;5007731;28;20508;-59
2022/04/07 09:32:25;;;;;;;6.28;1.75;;;10.10;99.90;;;;;;4998114;28;20042;-58
2022/04/07 09:34:57;;;;;;;7.00;1.60;;;10.20;99.90;;;;;;4991449;28;20096;-58
2022/04/07 09:37:24;;;;;;;6.38;1.75;;;10.30;99.90;;;;;;4993919;28;20058;-58
2022/04/07 09:40:14;;;;;;;5.45;1.77;;;10.30;99.90;;;;;;4993864;28;20053;-58
2022/04/07 09:42:43;;;;;;;6.47;1.80;;;;;;;;;;4998659;28;20053;-58
2022/04/07 09:45:12;;;;;;;8.27;2.20;;;10.50;99.90;;;;;;4997994;28;20073;-58
2022/04/07 09:47:40;;;;;;;10.52;2.10;;;10.30;99.90;;;;;;4996175;28;20050;-59
2022/04/07 09:50:08;;;;;;;9.20;1.95;;;10.90;99.90;;;;;;5000248;28;20077;-58
2022/04/07 09:52:37;;;;;;;7.28;2.28;;;11.00;99.90;;;;;;5000566;28;20046;-58
2022/04/07 09:55:08;;;;;;;7.88;2.42;;;10.70;99.90;;;;;;5001762;28;20054;-58
2022/04/07 09:57:35;;;;;;;7.78;2.30;;;11.00;99.90;;;;;;4991508;28;20042;-58
2022/04/07 10:00:05;;;;;;;10.30;2.25;;;10.70;99.90;;;;;;4991573;28;20060;-58
2022/04/07 10:02:31;;;;;;;7.53;2.15;;;10.70;99.90;;;;;;4996415;28;20054;-58
2022/04/07 10:04:58;;;;;;;10.13;2.33;;;;;;;;;;4989706;28;20113;-59
2022/04/07 10:07:28;;;;;;;13.18;2.45;;;10.50;99.90;;;;;;5000075;28;20053;-58
2022/04/07 10:09:54;;;;;;;8.25;2.30;;;10.70;99.90;;;;;;4996349;28;20097;-58
2022/04/07 10:12:21;;;;;;;11.77;2.42;;;10.70;99.90;;;;;;4996679;28;20514;-59
2022/04/07 10:14:48;;;;;;;11.05;2.45;;;10.80;99.90;;;;;;4995018;28;20088;-59
2022/04/07 10:17:14;;;;;;;9.38;2.33;;;;;;;;;;4997579;28;20037;-58
2022/04/07 10:19:56;;;;;;;12.02;2.47;;;10.70;99.90;;;;;;5005478;28;20049;-59
2022/04/07 10:22:43;;;;;;;11.73;2.53;;;10.70;99.90;;;;;;5000374;28;20073;-58
2022/04/07 10:25:10;;;;;;;6.82;2.22;;;10.50;99.90;;;;;;4990175;28;20051;-58
2022/04/07 10:27:44;;;;;;;7.65;2.50;;;10.50;99.90;;;;;;4999866;28;20049;-58
2022/04/07 10:30:13;;;;;;;12.70;2.72;;;10.40;99.90;;;;;;5001126;28;20496;-58
2022/04/07 10:32:43;;;;;;;10.02;2.60;;;10.40;99.90;;;;;;5006964;28;20070;-58
2022/04/07 10:35:11;;;;;;;13.85;2.78;;;10.40;99.90;;;;;;5008908;28;20054;-58
2022/04/07 10:37:43;;;;;;;10.68;2.50;;;10.30;99.90;;;;;;5002250;28;20409;-58
2022/04/07 10:40:35;;;;;;;13.40;2.80;;;10.40;99.90;;;;;;5007692;28;20486;-58
2022/04/07 10:43:10;;;;;;;14.68;2.80;;;10.20;99.90;;;;;;5011316;28;20042;-58
2022/04/07 10:45:43;;;;;;;12.25;2.80;;;10.20;99.90;;;;;;5003961;28;20144;-59
2022/04/07 10:48:20;;;;;;;17.00;2.92;;;10.10;99.90;;;;;;5000146;28;20042;-58
2022/04/07 10:51:07;;;;;;;13.07;3.10;;;10.10;99.90;;;;;;5004440;28;20132;-58
2022/04/07 10:53:58;;;;;;;16.70;3.67;;;10.30;99.90;;;;;;5006602;28;20153;-59
2022/04/07 10:56:34;;;;;;;16.23;3.10;;;10.60;99.90;;;;;;4997486;28;20488;-58
2022/04/07 10:59:22;;;;;;;16.98;3.10;;;11.00;99.90;;;;;;4998569;28;20053;-58
2022/04/07 11:01:57;;;;;;;15.50;3.20;;;11.00;99.90;;;;;;5008299;28;20132;-58
2022/04/07 11:04:23;;;;;;;17.83;3.30;;;;;;;;;;4995188;28;20093;-58
2022/04/07 11:07:15;;;;;;;15.43;3.78;;;11.30;99.90;;;;;;5004636;28;20097;-58
2022/04/07 11:10:00;;;;;;;15.63;3.47;;;10.90;99.90;;;;;;4995114;28;20046;-58
2022/04/07 11:12:39;;;;;;;11.95;3.00;;;11.40;99.90;;;;;;5009064;28;20057;-58
2022/04/07 11:15:16;;;;;;;20.55;3.55;;;11.30;99.90;;;;;;5002011;28;20056;-58
2022/04/07 11:17:42;;;;;;;13.60;3.10;;;;;;;;;;5008651;28;20125;-58
2022/04/07 11:20:18;;;;;;;13.77;2.88;;;11.30;99.90;;;;;;4997369;28;20626;-58
2022/04/07 11:22:52;;;;;;;13.45;3.08;;;11.40;99.90;;;;;;4995117;28;20053;-58
2022/04/07 11:25:31;;;;;;;13.73;2.95;;;11.20;99.90;;;;;;4997633;28;20104;-58
2022/04/07 11:28:10;;;;;;;16.48;3.20;;;11.20;99.90;;;;;;4995583;28;20073;-58
2022/04/07 11:30:38;;;;;;;17.85;3.20;;;10.90;99.90;;;;;;4994581;28;20118;-58
2022/04/07 11:33:20;;;;;;;12.63;3.10;;;10.50;99.90;;;;;;4998838;28;20050;-58
2022/04/07 11:36:02;;;;;;;14.10;3.22;;;10.30;99.90;;;;;;5001307;28;20402;-64
2022/04/07 11:38:32;;;;;;;15.50;2.90;;;10.10;99.90;;;;;;4995449;28;20101;-63
2022/04/07 11:41:02;;;;;;;16.17;4.90;;;10.20;99.90;;;;;;4994390;28;20402;-64
2022/04/07 11:43:29;;;;;;;14.40;3.30;;;10.30;99.90;;;;;;4996073;28;20041;-64
2022/04/07 11:45:58;;;;;;;14.85;3.08;;;10.50;99.90;;;;;;5002063;28;20042;-65
2022/04/07 11:48:29;;;;;;;12.27;3.13;;;10.60;99.90;;;;;;5013733;28;20548;-65
2022/04/07 11:51:00;;;;;;;18.73;3.25;;;10.90;99.90;;;;;;5007319;28;20096;-65
2022/04/07 11:53:27;;;;;;;12.15;2.78;;;11.00;99.90;;;;;;5001495;28;20042;-64
2022/04/07 11:55:52;;;;;;;12.27;2.80;;;11.00;99.90;;;;;;5003530;28;20512;-64
2022/04/07 11:58:18;;;;;;;13.75;3.45;;;11.30;99.90;;;;;;5012483;28;20049;-65
2022/04/07 12:00:44;;;;;;;14.77;3.10;;;11.40;99.90;;;;;;4997998;28;20052;-64
2022/04/07 12:03:09;;;;;;;19.10;3.35;;;11.30;99.90;;;;;;4993957;28;20089;-64
2022/04/07 12:05:40;;;;;;;15.93;3.30;;;11.40;99.90;;;;;;5000669;28;20039;-58
2022/04/07 12:08:12;;;;;;;15.73;3.05;;;11.10;99.90;;;;;;5004819;28;20043;-58
2022/04/07 12:10:39;;;;;;;14.57;3.17;;;11.00;99.90;;;;;;4994073;28;20093;-58
2022/04/07 12:13:06;;;;;;;16.63;3.15;;;;;;;;;;4992575;28;20486;-57
2022/04/07 12:15:34;;;;;;;11.82;3.30;;;11.40;99.90;;;;;;4993860;28;20528;-58
2022/04/07 12:18:01;;;;;;;12.65;2.70;;;11.40;99.90;;;;;;4993717;28;20402;-57
2022/04/07 12:20:27;;;;;;;14.32;2.80;;;11.60;99.90;;;;;;4993723;28;20147;-57
2022/04/07 12:23:10;;;;;;;11.52;2.95;;;11.80;99.90;;;;;;4993719;28;20538;-58
2022/04/07 12:25:37;;;;;;;16.40;3.13;;;12.40;99.90;;;;;;5005301;28;20038;-58
2022/04/07 12:28:15;;;;;;;23.33;3.97;;;11.60;99.90;;;;;;5003560;28;20084;-57
2022/04/07 12:30:53;;;;;;;18.13;3.45;;;11.40;99.90;;;;;;5001749;28;20050;-58
2022/04/07 12:33:45;;;;;;;13.50;3.00;;;11.00;99.90;;;;;;4999399;28;20077;-58
2022/04/07 12:36:12;;;;;;;17.63;3.17;;;11.10;99.90;;;;;;4994644;28;20532;-58
2022/04/07 12:38:58;;;;;;;17.90;3.65;;;11.60;99.90;;;;;;4995613;28;20039;-58
2022/04/07 12:41:35;;;;;;;14.63;3.53;;;10.80;99.90;;;;;;4993964;28;20641;-58
2022/04/07 12:44:01;;;;;;;16.45;3.25;;;10.90;99.90;;;;;;4999102;28;20100;-57
2022/04/07 12:46:51;;;;;;;19.45;3.45;;;10.90;99.90;;;;;;5000603;28;20441;-58
2022/04/07 12:49:32;;;;;;;18.20;3.45;;;11.10;99.90;;;;;;5002305;28;20501;-57
2022/04/07 12:52:11;;;;;;;18.13;3.42;;;11.30;99.90;;;;;;5000760;28;20051;-58
2022/04/07 12:55:04;;;;;;;14.10;3.10;;;11.50;99.90;;;;;;5001196;28;20575;-57
2022/04/07 12:57:33;;;;;;;12.20;3.03;;;11.70;99.90;;;;;;5009040;28;20057;-58
2022/04/07 13:00:06;;;;;;;18.25;3.30;;;11.90;99.90;;;;;;5008966;28;20162;-58
2022/04/07 13:02:52;;;;;;;9.27;2.60;;;12.00;99.90;;;;;;5003531;28;20061;-57
2022/04/07 13:05:29;;;;;;;13.57;3.17;;;12.10;99.90;;;;;;4991720;28;20046;-57
2022/04/07 13:08:00;;;;;;;11.85;3.05;;;12.10;99.90;;;;;;4997282;28;20396;-58
2022/04/07 13:10:27;;;;;;;14.23;2.85;;;12.00;99.90;;;;;;5003374;28;20050;-58
2022/04/07 13:12:53;;;;;;;13.35;3.50;;;;;;;;;;4999899;28;20125;-57
2022/04/07 13:15:19;;;;;;;12.80;3.15;;;;;;;;;;5009081;28;20140;-58
2022/04/07 13:17:46;;;;;;;16.52;3.08;;;12.30;99.90;;;;;;4991228;28;20075;-57
2022/04/07 13:20:13;;;;;;;13.02;3.22;;;11.50;99.90;;;;;;5004580;28;20473;-58
2022/04/07 13:22:38;;;;;;;12.10;2.58;;;11.20;99.90;;;;;;5003985;28;20039;-58